Time;durP1;ratioP1;P1;durP2;ratioP2;P2;SDS_P1;SDS_P2;PMS_P1;PMS_P2;Temp;Humidity;BMP_temperature;BMP_pressure;BME280_temperature;BME280_humidity;BME280_pressure;Samples;Min_cycle;Max_cycle;Signal;HPM_P1;HPM_P2
2021/04/15 00:01:56;;;;;;;14.27;9.43;;;;;;;;;;5115752;28;20024;-56
2021/04/15 00:04:23;;;;;;;12.30;8.40;;;;;;;;;;5115662;28;20356;-55
2021/04/15 00:06:50;;;;;;;12.68;8.05;;;;;;;;;;5115653;28;20015;-56
2021/04/15 00:09:18;;;;;;;12.67;8.50;;;;;;;;;;5115513;28;20469;-55
2021/04/15 00:11:45;;;;;;;10.83;8.30;;;;;;;;;;5115549;28;20099;-55
2021/04/15 00:14:13;;;;;;;11.57;7.67;;;;;;;;;;5115505;28;20023;-55
2021/04/15 00:16:40;;;;;;;12.53;8.90;;;;;;;;;;5115334;28;20032;-55
2021/04/15 00:19:08;;;;;;;9.27;7.87;;;;;;;;;;5115407;28;20027;-55
2021/04/15 00:21:35;;;;;;;8.87;7.83;;;;;;;;;;5115349;28;20035;-56
2021/04/15 00:24:02;;;;;;;8.97;7.67;;;;;;;;;;5115343;28;20027;-56
2021/04/15 00:26:29;;;;;;;9.43;7.70;;;;;;;;;;5115307;28;20069;-55
2021/04/15 00:28:56;;;;;;;9.00;7.20;;;;;;;;;;5115199;28;20028;-55
2021/04/15 00:31:24;;;;;;;9.43;7.13;;;;;;;;;;5115119;28;20036;-55
2021/04/15 00:33:51;;;;;;;10.80;7.10;;;;;;;;;;5115245;28;20020;-56
2021/04/15 00:36:19;;;;;;;8.83;7.20;;;;;;;;;;5096748;28;20561;-56
2021/04/15 00:38:54;;;;;;;9.57;6.33;;;;;;;;;;5114970;28;20111;-55
2021/04/15 00:41:29;;;;;;;9.13;6.90;;;;;;;;;;5114812;28;20035;-55
2021/04/15 00:43:56;;;;;;;8.53;5.83;;;;;;;;;;5114861;28;20466;-55
2021/04/15 00:46:41;;;;;;;8.73;6.83;;;;;;;;;;5114886;28;20023;-55
2021/04/15 00:49:08;;;;;;;15.73;9.03;;;;;;;;;;5114800;28;20543;-55
2021/04/15 00:51:39;;;;;;;17.87;9.10;;;;;;;;;;5114176;27;20580;-55
2021/04/15 00:54:06;;;;;;;16.17;9.10;;;;;;;;;;5114483;28;20430;-55
2021/04/15 00:56:33;;;;;;;15.07;9.27;;;;;;;;;;5114469;28;20363;-55
2021/04/15 00:59:00;;;;;;;13.10;8.77;;;;;;;;;;5114647;28;20023;-55
2021/04/15 01:01:27;;;;;;;16.23;8.90;;;;;;;;;;5114505;28;20077;-55
2021/04/15 01:03:54;;;;;;;11.87;8.20;;;;;;;;;;5114510;28;20031;-56
2021/04/15 01:06:20;;;;;;;12.90;7.60;;;;;;;;;;5114537;28;20024;-56
2021/04/15 01:08:47;;;;;;;10.90;7.37;;;;;;;;;;5114743;28;20031;-55
2021/04/15 01:11:21;;;;;;;11.93;7.97;;;;;;;;;;5114645;28;20113;-55
2021/04/15 01:14:06;;;;;;;11.43;7.00;;;;;;;;;;5114376;28;20075;-56
2021/04/15 01:16:37;;;;;;;12.77;8.10;;;;;;;;;;5114291;28;20031;-56
2021/04/15 01:19:17;;;;;;;10.70;7.90;;;;;;;;;;5114203;28;20030;-56
2021/04/15 01:22:00;;;;;;;18.90;10.50;;;;;;;;;;5114214;28;20027;-55
2021/04/15 01:24:33;;;;;;;15.67;9.80;;;;;;;;;;5114136;28;20030;-55
2021/04/15 01:27:09;;;;;;;16.13;8.50;;;;;;;;;;5114060;28;20016;-55
2021/04/15 01:29:53;;;;;;;15.00;8.90;;;;;;;;;;5114028;28;20027;-55
2021/04/15 01:32:20;;;;;;;12.20;9.17;;;;;;;;;;5114007;28;20023;-55
2021/04/15 01:34:47;;;;;;;22.07;9.20;;;;;;;;;;5114091;28;20094;-55
2021/04/15 01:37:21;;;;;;;11.93;8.47;;;;;;;;;;5113840;28;20495;-56
2021/04/15 01:40:14;;;;;;;17.37;9.93;;;;;;;;;;5113858;28;20034;-55
2021/04/15 01:42:44;;;;;;;14.40;8.77;;;;;;;;;;5109802;28;20032;-55
2021/04/15 01:45:11;;;;;;;14.80;9.03;;;;;;;;;;5113857;28;20080;-56
2021/04/15 01:47:41;;;;;;;17.00;10.40;;;;;;;;;;5113677;28;20059;-56
2021/04/15 01:50:12;;;;;;;19.93;9.17;;;;;;;;;;5113045;28;20051;-56
2021/04/15 01:52:39;;;;;;;12.37;9.37;;;;;;;;;;5113665;28;20073;-55
2021/04/15 01:55:17;;;;;;;12.23;8.93;;;;;;;;;;5113683;28;20031;-56
2021/04/15 01:57:56;;;;;;;11.73;8.60;;;;;;;;;;5113496;28;20020;-56
2021/04/15 02:00:27;;;;;;;12.73;8.30;;;;;;;;;;5113558;28;20047;-56
2021/04/15 02:03:07;;;;;;;15.33;8.77;;;;;;;;;;5113424;28;20032;-56
2021/04/15 02:05:38;;;;;;;15.13;8.30;;;;;;;;;;5112940;28;20028;-56
2021/04/15 02:08:08;;;;;;;11.77;8.37;;;;;;;;;;5113442;28;20477;-56
2021/04/15 02:10:36;;;;;;;16.77;9.30;;;;;;;;;;5113320;28;20123;-56
2021/04/15 02:13:06;;;;;;;16.93;9.83;;;;;;;;;;5113331;28;20385;-56
2021/04/15 02:15:44;;;;;;;13.37;8.73;;;;;;;;;;5113346;28;20028;-56
2021/04/15 02:18:12;;;;;;;14.17;9.47;;;;;;;;;;5095092;28;20529;-56
2021/04/15 02:20:39;;;;;;;17.93;10.40;;;;;;;;;;5113285;28;20028;-56
2021/04/15 02:23:09;;;;;;;15.30;9.40;;;;;;;;;;5113252;28;20383;-56
2021/04/15 02:25:51;;;;;;;11.57;8.47;;;;;;;;;;5113214;28;20036;-56
2021/04/15 02:28:27;;;;;;;16.97;9.93;;;;;;;;;;5113184;28;20469;-56
2021/04/15 02:30:56;;;;;;;17.73;10.63;;;;;;;;;;5113035;28;20397;-56
2021/04/15 02:33:24;;;;;;;14.70;10.10;;;;;;;;;;5113082;28;20032;-56
2021/04/15 02:35:53;;;;;;;15.20;9.87;;;;;;;;;;5113192;28;20032;-56
2021/04/15 02:38:25;;;;;;;16.30;10.50;;;;;;;;;;5113147;28;20039;-56
2021/04/15 02:40:54;;;;;;;16.23;9.97;;;;;;;;;;5113148;28;20025;-56
2021/04/15 02:43:30;;;;;;;13.57;8.57;;;;;;;;;;5113110;28;20038;-55
2021/04/15 02:45:58;;;;;;;19.03;9.80;;;;;;;;;;5113076;28;20429;-55
2021/04/15 02:48:27;;;;;;;18.07;9.40;;;;;;;;;;5113070;28;20470;-55
2021/04/15 02:50:56;;;;;;;17.27;9.40;;;;;;;;;;5112490;28;20048;-55
2021/04/15 02:53:26;;;;;;;14.20;8.87;;;;;;;;;;5113397;28;20012;-55
2021/04/15 02:55:55;;;;;;;13.53;9.20;;;;;;;;;;5112921;28;20543;-55
2021/04/15 02:58:31;;;;;;;16.83;9.57;;;;;;;;;;5113048;28;20106;-55
2021/04/15 03:00:58;;;;;;;13.93;9.37;;;;;;;;;;5112897;28;20370;-55
2021/04/15 03:03:27;;;;;;;16.13;10.10;;;;;;;;;;5112888;28;20020;-55
2021/04/15 03:05:58;;;;;;;19.33;12.77;;;;;;;;;;5112854;28;20020;-55
2021/04/15 03:08:26;;;;;;;16.37;10.30;;;;;;;;;;5112746;28;20420;-55
2021/04/15 03:10:57;;;;;;;15.83;10.60;;;;;;;;;;5112654;28;20482;-55
2021/04/15 03:13:44;;;;;;;16.17;11.33;;;;;;;;;;5112844;28;20028;-55
2021/04/15 03:16:11;;;;;;;19.73;11.93;;;;;;;;;;5113347;28;20028;-55
2021/04/15 03:18:41;;;;;;;15.13;9.60;;;;;;;;;;5116707;28;20019;-55
2021/04/15 03:21:19;;;;;;;15.03;10.63;;;;;;;;;;5116549;28;20413;-55
2021/04/15 03:23:52;;;;;;;13.13;10.10;;;;;;;;;;5116648;28;20030;-55
2021/04/15 03:26:28;;;;;;;15.80;10.47;;;;;;;;;;5116402;28;20024;-55
2021/04/15 03:29:05;;;;;;;15.33;10.20;;;;;;;;;;5116294;28;20387;-55
2021/04/15 03:31:33;;;;;;;14.30;9.53;;;;;;;;;;5116230;28;20386;-55
2021/04/15 03:34:03;;;;;;;14.10;9.00;;;;;;;;;;5116281;28;20015;-55
2021/04/15 03:36:38;;;;;;;16.33;8.70;;;;;;;;;;5116186;28;20027;-55
2021/04/15 03:39:13;;;;;;;12.63;7.73;;;;;;;;;;5116165;28;20401;-55
2021/04/15 03:41:50;;;;;;;14.80;9.43;;;;;;;;;;5116198;28;20020;-55
2021/04/15 03:44:21;;;;;;;11.10;8.43;;;;;;;;;;5116113;28;20019;-55
2021/04/15 03:46:48;;;;;;;11.83;8.60;;;;;;;;;;5116035;28;20042;-55
2021/04/15 03:49:21;;;;;;;12.30;8.10;;;;;;;;;;5116086;28;20026;-54
2021/04/15 03:51:50;;;;;;;13.47;9.07;;;;;;;;;;5115496;27;20050;-55
2021/04/15 03:54:22;;;;;;;11.23;8.13;;;;;;;;;;5115926;28;20042;-55
2021/04/15 03:56:51;;;;;;;11.97;8.30;;;;;;;;;;5115783;28;20027;-55
2021/04/15 03:59:37;;;;;;;12.50;8.70;;;;;;;;;;5115813;28;20019;-55
2021/04/15 04:02:05;;;;;;;15.20;9.90;;;;;;;;;;5115730;28;20024;-55
2021/04/15 04:04:34;;;;;;;12.43;9.23;;;;;;;;;;5115693;28;20038;-55
2021/04/15 04:07:04;;;;;;;17.87;10.80;;;;;;;;;;5115579;28;20030;-56
2021/04/15 04:09:33;;;;;;;11.77;8.53;;;;;;;;;;5115509;28;20035;-55
2021/04/15 04:12:01;;;;;;;13.10;8.37;;;;;;;;;;5115614;28;20498;-56
2021/04/15 04:14:34;;;;;;;12.43;8.87;;;;;;;;;;5115534;28;20479;-56
2021/04/15 04:17:05;;;;;;;12.23;7.87;;;;;;;;;;5115524;28;20024;-55
2021/04/15 04:19:39;;;;;;;16.60;8.77;;;;;;;;;;5115451;28;20023;-55
2021/04/15 04:22:24;;;;;;;12.63;8.50;;;;;;;;;;5115782;28;20035;-55
2021/04/15 04:24:57;;;;;;;9.82;7.68;;;;;;;;;;5115363;28;20086;-55
2021/04/15 04:27:29;;;;;;;13.60;8.47;;;;;;;;;;5115059;28;20121;-55
2021/04/15 04:30:03;;;;;;;12.30;8.03;;;;;;;;;;5114821;28;20471;-56
2021/04/15 04:32:31;;;;;;;11.90;8.18;;;;;;;;;;5115142;28;20036;-56
2021/04/15 04:34:59;;;;;;;10.63;8.10;;;;;;;;;;5115180;28;20020;-56
2021/04/15 04:37:30;;;;;;;12.10;8.57;;;;;;;;;;5115023;28;20028;-56
2021/04/15 04:39:58;;;;;;;13.40;8.70;;;;;;;;;;5115039;28;20492;-56
2021/04/15 04:42:27;;;;;;;12.47;8.70;;;;;;;;;;5114929;28;20072;-57
2021/04/15 04:44:56;;;;;;;17.60;9.57;;;;;;;;;;5114857;28;20024;-56
2021/04/15 04:47:26;;;;;;;11.97;9.73;;;;;;;;;;5114860;28;20027;-56
2021/04/15 04:49:56;;;;;;;11.93;8.27;;;;;;;;;;5114764;28;20032;-56
2021/04/15 04:52:27;;;;;;;10.57;7.87;;;;;;;;;;5114437;27;20052;-56
2021/04/15 04:54:54;;;;;;;12.00;9.10;;;;;;;;;;5114995;28;20107;-56
2021/04/15 04:57:27;;;;;;;13.40;9.30;;;;;;;;;;5114668;28;20102;-56
2021/04/15 05:00:14;;;;;;;13.13;9.17;;;;;;;;;;5114737;28;20028;-56
2021/04/15 05:02:41;;;;;;;14.33;8.83;;;;;;;;;;5114516;28;20019;-56
2021/04/15 05:05:13;;;;;;;12.77;9.23;;;;;;;;;;5114541;28;20023;-56
2021/04/15 05:07:40;;;;;;;11.90;8.57;;;;;;;;;;5114725;28;20020;-56
2021/04/15 05:10:07;;;;;;;12.17;8.40;;;;;;;;;;5114379;28;20088;-56
2021/04/15 05:12:35;;;;;;;13.83;9.47;;;;;;;;;;5114708;28;20088;-55
2021/04/15 05:15:03;;;;;;;14.50;10.07;;;;;;;;;;5114428;28;20027;-56
2021/04/15 05:17:34;;;;;;;13.67;8.57;;;;;;;;;;5114205;28;20024;-56
2021/04/15 05:20:02;;;;;;;12.13;8.47;;;;;;;;;;5114232;28;20478;-56
2021/04/15 05:22:38;;;;;;;11.73;8.23;;;;;;;;;;5114217;28;20023;-56
2021/04/15 05:25:09;;;;;;;11.17;9.00;;;;;;;;;;5114201;28;20070;-56
2021/04/15 05:27:38;;;;;;;11.63;8.70;;;;;;;;;;5114169;28;20023;-56
2021/04/15 05:30:16;;;;;;;12.03;8.37;;;;;;;;;;5114126;28;20360;-56
2021/04/15 05:32:44;;;;;;;14.33;8.57;;;;;;;;;;5113996;28;20486;-56
2021/04/15 05:35:13;;;;;;;12.00;8.20;;;;;;;;;;5113961;28;20106;-56
2021/04/15 05:37:40;;;;;;;13.87;9.20;;;;;;;;;;5113974;28;20076;-56
2021/04/15 05:40:07;;;;;;;11.47;8.17;;;;;;;;;;5113028;28;20031;-56
2021/04/15 05:42:40;;;;;;;13.80;9.30;;;;;;;;;;5113812;28;20395;-56
2021/04/15 05:45:07;;;;;;;13.23;8.97;;;;;;;;;;5113777;28;20077;-56
2021/04/15 05:47:51;;;;;;;10.53;8.03;;;;;;;;;;5113786;28;20102;-56
2021/04/15 05:50:24;;;;;;;11.13;7.40;;;;;;;;;;5113633;28;20035;-56
2021/04/15 05:52:56;;;;;;;11.13;8.03;;;;;;;;;;5073133;28;20051;-56
2021/04/15 05:55:49;;;;;;;13.10;8.80;;;;;;;;;;5073048;28;20431;-56
2021/04/15 05:58:25;;;;;;;11.43;9.43;;;;;;;;;;5042484;28;20040;-56
2021/04/15 06:00:52;;;;;;;12.43;9.43;;;;;;;;;;5073036;28;20031;-56
2021/04/15 06:03:41;;;;;;;14.17;9.67;;;;;;;;;;5073318;28;20096;-56
2021/04/15 06:06:11;;;;;;;13.20;8.43;;;;;;;;;;5073207;28;20099;-56
2021/04/15 06:08:41;;;;;;;11.03;7.63;;;;;;;;;;5072910;28;20383;-56
2021/04/15 06:11:30;;;;;;;12.50;8.57;;;;;;;;;;5072866;28;20255;-56
2021/04/15 06:14:04;;;;;;;16.07;10.50;;;;;;;;;;5062726;28;20067;-56
2021/04/15 06:16:33;;;;;;;9.40;7.67;;;;;;;;;;5072838;28;20482;-56
2021/04/15 06:19:05;;;;;;;10.13;7.97;;;;;;;;;;5072813;28;20112;-56
2021/04/15 06:21:37;;;;;;;11.37;8.73;;;;;;;;;;5072810;28;20021;-56
2021/04/15 06:24:08;;;;;;;12.47;8.00;;;;;;;;;;5072817;28;20477;-56
2021/04/15 06:26:50;;;;;;;9.90;7.93;;;;;;;;;;5072710;28;20020;-55
2021/04/15 06:29:29;;;;;;;11.00;8.17;;;;;;;;;;5072765;28;20364;-56
2021/04/15 06:31:56;;;;;;;12.17;7.97;;;;;;;;;;5072709;28;20483;-56
2021/04/15 06:34:23;;;;;;;12.00;8.33;;;;;;;;;;5072778;28;20074;-55
2021/04/15 06:37:04;;;;;;;15.27;9.13;;;;;;;;;;5072587;28;20040;-55
2021/04/15 06:39:33;;;;;;;12.00;8.83;;;;;;;;;;5072928;28;20040;-56
2021/04/15 06:42:02;;;;;;;12.10;8.90;;;;;;;;;;5072701;28;20078;-56
2021/04/15 06:44:43;;;;;;;10.73;8.67;;;;;;;;;;5072613;28;20086;-55
2021/04/15 06:47:10;;;;;;;12.67;9.23;;;;;;;;;;5072497;28;20452;-56
2021/04/15 06:49:46;;;;;;;17.10;9.93;;;;;;;;;;5072483;28;20031;-56
2021/04/15 06:52:22;;;;;;;14.37;9.37;;;;;;;;;;5106229;28;20044;-56
2021/04/15 06:54:49;;;;;;;11.47;9.30;;;;;;;;;;5117070;28;20032;-56
2021/04/15 06:57:42;;;;;;;13.10;9.73;;;;;;;;;;5116917;28;20016;-56
2021/04/15 07:00:14;;;;;;;11.97;8.87;;;;;;;;;;5078635;28;20074;-55
2021/04/15 07:02:53;;;;;;;13.13;9.17;;;;;;;;;;5116912;28;20156;-55
2021/04/15 07:05:23;;;;;;;13.20;9.23;;;;;;;;;;5116902;28;20024;-55
2021/04/15 07:08:09;;;;;;;12.37;8.87;;;;;;;;;;5116798;28;20425;-56
2021/04/15 07:10:55;;;;;;;12.47;9.60;;;;;;;;;;5116704;28;20418;-55
2021/04/15 07:13:30;;;;;;;10.70;9.03;;;;;;;;;;5116774;28;20497;-55
2021/04/15 07:16:09;;;;;;;16.37;10.03;;;;;;;;;;5116695;28;20016;-55
2021/04/15 07:18:57;;;;;;;11.33;8.97;;;;;;;;;;5116682;28;20068;-55
2021/04/15 07:21:39;;;;;;;11.10;8.70;;;;;;;;;;5116590;28;20047;-56
2021/04/15 07:24:20;;;;;;;10.77;8.10;;;;;;;;;;5116579;28;20028;-56
2021/04/15 07:27:13;;;;;;;13.37;9.67;;;;;;;;;;5116534;28;20035;-55
2021/04/15 07:29:58;;;;;;;11.67;9.80;;;;;;;;;;5077964;28;20031;-56
2021/04/15 07:32:43;;;;;;;11.52;9.18;;;;;;;;;;5116425;28;20020;-55
2021/04/15 07:35:10;;;;;;;12.85;8.95;;;;;;;;;;5116343;28;20382;-55
2021/04/15 07:37:47;;;;;;;12.53;8.90;;;;;;;;;;5116286;28;20352;-56
2021/04/15 07:40:14;;;;;;;14.23;10.17;;;;;;;;;;5116299;28;20098;-55
2021/04/15 07:42:59;;;;;;;14.17;9.50;;;;;;;;;;5115839;28;20023;-55
2021/04/15 07:45:35;;;;;;;11.75;9.45;;;;;;;;;;5116086;28;20031;-55
2021/04/15 07:48:15;;;;;;;12.63;8.90;;;;;;;;;;5115984;28;20023;-55
2021/04/15 07:51:00;;;;;;;15.33;9.80;;;;;;;;;;5115408;27;20470;-56
2021/04/15 07:53:35;;;;;;;12.45;9.23;;;;;;;;;;5115999;28;20036;-55
2021/04/15 07:56:05;;;;;;;13.30;8.70;;;;;;;;;;5115761;28;20040;-56
2021/04/15 07:58:32;;;;;;;10.30;8.37;;;;;;;;;;5115889;28;20016;-55
2021/04/15 08:01:08;;;;;;;11.13;9.10;;;;;;;;;;5115797;28;20501;-56
2021/04/15 08:03:35;;;;;;;13.63;9.37;;;;;;;;;;5114944;28;20023;-55
2021/04/15 08:06:20;;;;;;;12.97;9.10;;;;;;;;;;5116128;28;20366;-55
2021/04/15 08:08:50;;;;;;;10.30;7.75;;;;;;;;;;5115827;28;20023;-55
2021/04/15 08:11:28;;;;;;;12.40;9.53;;;;;;;;;;5115621;28;20046;-55
2021/04/15 08:14:10;;;;;;;13.73;8.60;;;;;;;;;;5115843;28;20051;-55
2021/04/15 08:16:43;;;;;;;19.90;8.47;;;;;;;;;;5115630;28;20042;-55
2021/04/15 08:19:28;;;;;;;11.27;8.13;;;;;;;;;;5115876;28;20138;-55
2021/04/15 08:21:59;;;;;;;11.75;8.70;;;;;;;;;;5097215;28;20555;-55
2021/04/15 08:24:26;;;;;;;12.23;9.93;;;;;;;;;;5115423;28;20466;-55
2021/04/15 08:27:11;;;;;;;11.03;9.13;;;;;;;;;;5115211;28;20439;-55
2021/04/15 08:29:40;;;;;;;15.80;8.40;;;;;;;;;;5115501;28;20020;-55
2021/04/15 08:32:25;;;;;;;15.47;10.07;;;;;;;;;;5115239;28;20054;-55
2021/04/15 08:35:10;;;;;;;15.98;9.60;;;;;;;;;;5115158;28;20043;-55
2021/04/15 08:37:40;;;;;;;11.65;9.13;;;;;;;;;;5115069;28;20107;-55
2021/04/15 08:40:22;;;;;;;10.30;7.83;;;;;;;;;;5115138;28;20026;-55
2021/04/15 08:43:07;;;;;;;10.50;7.93;;;;;;;;;;5115273;28;20031;-55
2021/04/15 08:45:55;;;;;;;13.20;8.10;;;;;;;;;;5114734;28;20079;-55
2021/04/15 08:48:33;;;;;;;10.63;8.70;;;;;;;;;;5114863;28;20100;-55
2021/04/15 08:51:31;;;;;;;12.80;8.90;;;;;;;;;;5114089;27;20055;-55
2021/04/15 08:54:16;;;;;;;10.47;9.20;;;;;;;;;;5115114;28;20043;-55
2021/04/15 08:56:46;;;;;;;10.68;8.32;;;;;;;;;;5114601;28;20274;-55
2021/04/15 08:59:32;;;;;;;10.10;8.20;;;;;;;;;;5114666;28;20028;-55
2021/04/15 09:02:11;;;;;;;12.45;9.13;;;;;;;;;;5114653;28;20415;-55
2021/04/15 09:04:38;;;;;;;12.57;9.03;;;;;;;;;;5114540;28;20030;-55
2021/04/15 09:07:11;;;;;;;11.20;8.87;;;;;;;;;;5114479;28;20077;-55
2021/04/15 09:09:56;;;;;;;11.27;8.50;;;;;;;;;;5114367;28;20043;-55
2021/04/15 09:12:23;;;;;;;12.07;9.93;;;;;;;;;;5114425;28;20028;-55
2021/04/15 09:14:57;;;;;;;12.20;9.53;;;;;;;;;;5114109;28;20036;-55
2021/04/15 09:17:26;;;;;;;13.80;9.70;;;;;;;;;;5114538;28;20032;-55
2021/04/15 09:20:01;;;;;;;13.97;9.50;;;;;;;;;;5114209;28;20425;-55
2021/04/15 09:22:28;;;;;;;11.27;8.53;;;;;;;;;;5114267;28;20502;-55
2021/04/15 09:25:13;;;;;;;10.73;8.40;;;;;;;;;;5114154;28;20120;-55
2021/04/15 09:27:43;;;;;;;10.55;8.60;;;;;;;;;;5114117;28;20038;-55
2021/04/15 09:30:19;;;;;;;12.90;8.83;;;;;;;;;;5114035;28;20428;-55
2021/04/15 09:33:04;;;;;;;12.23;8.70;;;;;;;;;;5114336;28;20114;-55
2021/04/15 09:35:48;;;;;;;10.77;8.20;;;;;;;;;;5114084;28;20023;-55
2021/04/15 09:38:15;;;;;;;8.35;6.22;;;;;;;;;;5113996;28;20031;-55
2021/04/15 09:41:05;;;;;;;12.00;8.60;;;;;;;;;;5114009;28;20023;-55
2021/04/15 09:43:44;;;;;;;11.83;9.07;;;;;;;;;;5101239;28;20024;-55
2021/04/15 09:46:29;;;;;;;10.63;8.43;;;;;;;;;;5113770;28;20072;-55
2021/04/15 09:49:05;;;;;;;12.32;9.52;;;;;;;;;;5113805;28;20283;-55
2021/04/15 09:51:41;;;;;;;12.03;9.40;;;;;;;;;;5113084;27;20511;-56
2021/04/15 09:54:14;;;;;;;14.10;9.47;;;;;;;;;;5113673;28;20031;-55
2021/04/15 09:56:46;;;;;;;12.10;8.90;;;;;;;;;;5113509;28;20259;-55
2021/04/15 09:59:16;;;;;;;11.73;8.27;;;;;;;;;;5113623;28;20282;-55
2021/04/15 10:01:47;;;;;;;12.03;8.20;;;;;;;;;;5113558;28;20339;-55
2021/04/15 10:04:21;;;;;;;11.57;8.43;;;;;;;;;;5113519;28;20248;-55
2021/04/15 10:06:53;;;;;;;12.15;9.02;;;;;;;;;;5113441;28;20259;-55
2021/04/15 10:09:38;;;;;;;14.07;9.90;;;;;;;;;;5113791;28;20032;-55
2021/04/15 10:12:17;;;;;;;14.63;9.40;;;;;;;;;;5113489;28;20304;-55
2021/04/15 10:15:10;;;;;;;10.23;8.17;;;;;;;;;;5113538;28;20020;-55
2021/04/15 10:17:39;;;;;;;11.97;8.10;;;;;;;;;;5074996;28;20321;-55
2021/04/15 10:20:26;;;;;;;10.50;8.30;;;;;;;;;;5113414;28;20252;-55
2021/04/15 10:22:59;;;;;;;10.93;9.37;;;;;;;;;;5113406;28;20019;-55
2021/04/15 10:25:31;;;;;;;13.00;8.80;;;;;;;;;;5113177;28;20252;-55
2021/04/15 10:28:16;;;;;;;12.63;8.37;;;;;;;;;;5113184;28;20339;-55
2021/04/15 10:30:46;;;;;;;11.63;8.75;;;;;;;;;;5113139;28;20293;-55
2021/04/15 10:33:32;;;;;;;11.57;8.80;;;;;;;;;;5113211;28;20031;-55
2021/04/15 10:36:17;;;;;;;11.47;9.20;;;;;;;;;;5113083;28;20337;-55
2021/04/15 10:39:04;;;;;;;13.55;9.45;;;;;;;;;;5113212;28;20240;-55
2021/04/15 10:41:31;;;;;;;11.73;9.10;;;;;;;;;;5096227;28;20043;-55
2021/04/15 10:44:15;;;;;;;15.17;9.63;;;;;;;;;;5113076;28;20255;-55
2021/04/15 10:46:48;;;;;;;12.20;8.95;;;;;;;;;;5113031;28;20249;-55
2021/04/15 10:49:15;;;;;;;10.87;8.80;;;;;;;;;;5113047;28;20120;-55
2021/04/15 10:51:48;;;;;;;11.57;8.90;;;;;;;;;;5112567;28;20289;-55
2021/04/15 10:54:27;;;;;;;13.00;9.10;;;;;;;;;;5113075;28;20244;-55
2021/04/15 10:56:56;;;;;;;11.03;8.70;;;;;;;;;;5112826;28;20255;-55
2021/04/15 10:59:33;;;;;;;12.30;8.30;;;;;;;;;;5112907;28;20773;-55
2021/04/15 11:02:08;;;;;;;12.40;8.80;;;;;;;;;;5112997;28;20259;-55
2021/04/15 11:04:35;;;;;;;11.00;8.10;;;;;;;;;;5112974;28;20244;-55
2021/04/15 11:07:22;;;;;;;11.67;8.97;;;;;;;;;;5112848;28;20252;-55
2021/04/15 11:09:51;;;;;;;12.27;8.90;;;;;;;;;;5112710;28;20253;-55
2021/04/15 11:12:19;;;;;;;15.17;10.60;;;;;;;;;;5113019;28;20268;-55
2021/04/15 11:14:46;;;;;;;12.50;8.63;;;;;;;;;;5112891;28;20282;-55
2021/04/15 11:17:35;;;;;;;15.37;8.87;;;;;;;;;;5112755;28;20325;-55
2021/04/15 11:20:10;;;;;;;11.77;8.57;;;;;;;;;;5112769;28;20255;-55
2021/04/15 11:22:49;;;;;;;11.02;8.30;;;;;;;;;;5112668;28;20290;-55
2021/04/15 11:25:30;;;;;;;11.97;8.10;;;;;;;;;;5112555;28;20038;-55
2021/04/15 11:27:57;;;;;;;16.13;10.20;;;;;;;;;;5112726;28;20309;-55
2021/04/15 11:30:47;;;;;;;11.10;8.80;;;;;;;;;;5112552;28;20327;-54
2021/04/15 11:33:31;;;;;;;12.07;9.10;;;;;;;;;;5081737;28;20256;-54
2021/04/15 11:36:15;;;;;;;10.83;8.13;;;;;;;;;;5112527;28;20256;-54
2021/04/15 11:38:42;;;;;;;11.23;8.67;;;;;;;;;;5113957;28;20259;-54
2021/04/15 11:41:14;;;;;;;9.83;8.20;;;;;;;;;;5116207;28;20271;-54
2021/04/15 11:43:41;;;;;;;11.73;8.73;;;;;;;;;;5116133;28;20252;-54
2021/04/15 11:46:26;;;;;;;11.90;8.60;;;;;;;;;;5116169;28;20264;-54
2021/04/15 11:49:07;;;;;;;14.10;8.50;;;;;;;;;;5116181;28;20240;-55
2021/04/15 11:51:42;;;;;;;10.67;8.67;;;;;;;;;;5115491;27;20051;-55
2021/04/15 11:54:13;;;;;;;13.90;8.88;;;;;;;;;;5116043;28;20287;-55
2021/04/15 11:56:42;;;;;;;14.50;11.20;;;;;;;;;;5115873;28;20052;-54
2021/04/15 11:59:21;;;;;;;15.60;10.77;;;;;;;;;;5115840;28;20406;-54
2021/04/15 12:01:49;;;;;;;13.60;10.43;;;;;;;;;;5115788;28;20739;-55
2021/04/15 12:04:21;;;;;;;15.80;12.07;;;;;;;;;;5115826;28;20758;-54
2021/04/15 12:06:54;;;;;;;16.80;12.30;;;;;;;;;;5115607;28;20252;-54
2021/04/15 12:09:24;;;;;;;15.30;11.57;;;;;;;;;;5115661;28;20354;-54
2021/04/15 12:12:05;;;;;;;13.60;10.17;;;;;;;;;;5115472;28;20284;-54
2021/04/15 12:14:34;;;;;;;12.33;9.27;;;;;;;;;;5115716;28;20252;-54
2021/04/15 12:17:07;;;;;;;21.57;11.97;;;;;;;;;;5115783;28;20240;-54
2021/04/15 12:19:48;;;;;;;17.37;11.37;;;;;;;;;;5115437;28;20248;-54
2021/04/15 12:22:20;;;;;;;16.40;10.57;;;;;;;;;;5115516;28;20252;-54
2021/04/15 12:24:50;;;;;;;21.37;12.63;;;;;;;;;;5115344;28;20305;-55
2021/04/15 12:27:19;;;;;;;17.37;11.17;;;;;;;;;;5115258;28;20705;-54
2021/04/15 12:30:04;;;;;;;16.27;11.17;;;;;;;;;;5115170;28;20758;-54
2021/04/15 12:32:50;;;;;;;16.13;11.55;;;;;;;;;;5115206;28;20612;-55
2021/04/15 12:35:38;;;;;;;16.80;11.20;;;;;;;;;;5115284;28;20051;-55
2021/04/15 12:38:13;;;;;;;19.10;12.13;;;;;;;;;;5115227;28;20023;-55
2021/04/15 12:40:41;;;;;;;15.98;11.95;;;;;;;;;;5115029;28;20252;-54
2021/04/15 12:43:08;;;;;;;15.57;11.17;;;;;;;;;;5114953;28;20077;-54
2021/04/15 12:45:38;;;;;;;14.80;10.60;;;;;;;;;;5114878;28;20259;-55
2021/04/15 12:48:05;;;;;;;17.93;11.07;;;;;;;;;;5114858;28;20251;-55
2021/04/15 12:50:32;;;;;;;14.83;10.30;;;;;;;;;;5114250;28;20283;-54
2021/04/15 12:53:00;;;;;;;18.30;11.20;;;;;;;;;;5114391;27;20639;-55
2021/04/15 12:55:27;;;;;;;18.30;11.00;;;;;;;;;;5114711;28;20249;-55
2021/04/15 12:57:55;;;;;;;20.27;10.67;;;;;;;;;;5114658;28;20256;-54
2021/04/15 13:00:42;;;;;;;17.83;11.73;;;;;;;;;;5114728;28;20255;-55
2021/04/15 13:03:10;;;;;;;16.57;10.77;;;;;;;;;;5114511;28;20692;-55
2021/04/15 13:05:37;;;;;;;19.27;13.13;;;;;;;;;;5114517;28;20332;-55
2021/04/15 13:08:22;;;;;;;16.83;12.87;;;;;;;;;;5114457;28;20244;-55
2021/04/15 13:10:49;;;;;;;21.20;14.57;;;;;;;;;;5114372;28;20347;-55
2021/04/15 13:13:20;;;;;;;17.60;13.30;;;;;;;;;;5114405;28;20360;-55
2021/04/15 13:15:47;;;;;;;23.17;15.13;;;;;;;;;;5096045;28;20747;-54
2021/04/15 13:18:33;;;;;;;25.33;15.27;;;;;;;;;;5114374;28;20267;-55
2021/04/15 13:21:07;;;;;;;19.77;13.60;;;;;;;;;;5114257;28;20255;-55
2021/04/15 13:23:39;;;;;;;16.63;11.20;;;;;;;;;;5114181;28;20312;-55
2021/04/15 13:26:06;;;;;;;17.00;12.33;;;;;;;;;;5114052;28;20244;-55
2021/04/15 13:28:48;;;;;;;17.03;12.73;;;;;;;;;;5114198;28;20263;-55
2021/04/15 13:31:33;;;;;;;21.23;12.67;;;;;;;;;;5113897;28;20032;-55
2021/04/15 13:33:59;;;;;;;;;;;;;;;;;;5114708;28;20367;-55
2021/04/15 13:36:27;;;;;;;19.67;12.13;;;;;;;;;;5114036;28;20390;-56
2021/04/15 13:38:53;;;;;;;18.00;12.80;;;;;;;;;;5114072;28;20038;-55
2021/04/15 13:41:27;;;;;;;17.90;13.07;;;;;;;;;;5113896;28;20032;-55
2021/04/15 13:43:58;;;;;;;20.17;14.63;;;;;;;;;;5114322;28;20031;-56
2021/04/15 13:46:26;;;;;;;28.97;19.00;;;;;;;;;;5113783;28;20035;-55
2021/04/15 13:49:03;;;;;;;21.27;15.70;;;;;;;;;;5113873;28;20027;-56
2021/04/15 13:51:32;;;;;;;24.40;16.53;;;;;;;;;;5113142;28;20107;-56
2021/04/15 13:53:59;;;;;;;20.90;16.20;;;;;;;;;;5113849;28;20043;-56
2021/04/15 13:56:38;;;;;;;28.17;17.23;;;;;;;;;;5113648;28;20043;-55
2021/04/15 13:59:23;;;;;;;25.50;15.67;;;;;;;;;;5113563;28;20028;-56
2021/04/15 14:01:50;;;;;;;23.60;16.17;;;;;;;;;;5112778;28;20049;-56
2021/04/15 14:04:40;;;;;;;23.00;16.63;;;;;;;;;;5113565;28;20359;-56
2021/04/15 14:07:25;;;;;;;23.57;16.40;;;;;;;;;;5100923;28;20047;-55
2021/04/15 14:09:51;;;;;;;;;;;;;;;;;;5114083;28;20035;-56
2021/04/15 14:12:39;;;;;;;24.70;16.40;;;;;;;;;;5113496;28;20037;-56
2021/04/15 14:15:29;;;;;;;31.33;19.50;;;;;;;;;;5113337;28;20036;-56
2021/04/15 14:17:59;;;;;;;33.03;19.27;;;;;;;;;;5100602;28;20059;-56
2021/04/15 14:20:34;;;;;;;31.27;20.60;;;;;;;;;;5113394;28;20428;-56
2021/04/15 14:23:03;;;;;;;34.43;22.73;;;;;;;;;;5113300;28;20027;-55
2021/04/15 14:25:31;;;;;;;41.97;28.73;;;;;;;;;;5113354;28;20479;-56
2021/04/15 14:27:59;;;;;;;34.00;24.30;;;;;;;;;;5113208;28;20059;-56
2021/04/15 14:30:27;;;;;;;33.47;23.60;;;;;;;;;;5113118;28;20133;-56
2021/04/15 14:32:54;;;;;;;34.00;21.93;;;;;;;;;;5113093;28;20378;-56
2021/04/15 14:35:23;;;;;;;30.17;20.17;;;;;;;;;;5113098;28;20028;-56
2021/04/15 14:37:50;;;;;;;26.27;19.53;;;;;;;;;;5113155;28;20024;-56
2021/04/15 14:40:32;;;;;;;25.23;18.77;;;;;;;;;;5113107;28;20386;-56
2021/04/15 14:42:59;;;;;;;27.43;19.97;;;;;;;;;;5113020;28;20034;-56
2021/04/15 14:45:26;;;;;;;31.47;21.07;;;;;;;;;;5113050;28;20072;-56
2021/04/15 14:47:58;;;;;;;26.73;19.83;;;;;;;;;;5113045;28;20024;-56
2021/04/15 14:50:28;;;;;;;23.23;18.60;;;;;;;;;;5113000;28;20056;-56
2021/04/15 14:52:56;;;;;;;22.20;16.57;;;;;;;;;;5112585;28;20127;-56
2021/04/15 14:55:28;;;;;;;22.13;16.00;;;;;;;;;;5112913;28;20024;-56
2021/04/15 14:57:57;;;;;;;22.83;16.37;;;;;;;;;;5113011;28;20023;-56
2021/04/15 15:00:25;;;;;;;21.70;17.67;;;;;;;;;;5113016;28;20410;-56
2021/04/15 15:02:55;;;;;;;25.27;17.07;;;;;;;;;;5112927;28;20489;-56
2021/04/15 15:05:26;;;;;;;22.07;16.60;;;;;;;;;;5112841;28;20031;-56
2021/04/15 15:07:55;;;;;;;20.60;14.23;;;;;;;;;;5112940;28;20031;-56